sensor_id;sensor_type;location;lat;lon;timestamp;pressure;altitude;pressure_sealevel;temperature;humidity
83308;BME280;73223;48.584;13.460;2024-03-02T00:01:15;95893.09;;;7.00;100.00
83308;BME280;73223;48.584;13.460;2024-03-02T00:03:42;95895.09;;;7.18;100.00
83308;BME280;73223;48.584;13.460;2024-03-02T00:06:07;95894.44;;;7.38;100.00
83308;BME280;73223;48.584;13.460;2024-03-02T00:08:33;95889.78;;;7.22;100.00
83308;BME280;73223;48.584;13.460;2024-03-02T00:10:59;95893.31;;;7.20;100.00
83308;BME280;73223;48.584;13.460;2024-03-02T00:13:25;95886.47;;;7.19;100.00
83308;BME280;73223;48.584;13.460;2024-03-02T00:15:54;95887.91;;;7.27;100.00
83308;BME280;73223;48.584;13.460;2024-03-02T00:18:40;95895.09;;;7.18;100.00
83308;BME280;73223;48.584;13.460;2024-03-02T00:21:06;95886.50;;;7.17;100.00
83308;BME280;73223;48.584;13.460;2024-03-02T00:23:35;95888.66;;;7.56;100.00
83308;BME280;73223;48.584;13.460;2024-03-02T00:26:01;95888.75;;;7.28;100.00
83308;BME280;73223;48.584;13.460;2024-03-02T00:28:32;95890.97;;;7.39;100.00
83308;BME280;73223;48.584;13.460;2024-03-02T00:31:02;95892.22;;;7.27;100.00
83308;BME280;73223;48.584;13.460;2024-03-02T00:33:31;95893.34;;;7.45;100.00
83308;BME280;73223;48.584;13.460;2024-03-02T00:35:57;95898.50;;;6.92;100.00
83308;BME280;73223;48.584;13.460;2024-03-02T00:38:24;95892.06;;;6.79;100.00
83308;BME280;73223;48.584;13.460;2024-03-02T00:40:50;95899.25;;;7.22;100.00
83308;BME280;73223;48.584;13.460;2024-03-02T00:46:05;95891.72;;;7.42;100.00
83308;BME280;73223;48.584;13.460;2024-03-02T00:48:30;95894.53;;;7.35;100.00
83308;BME280;73223;48.584;13.460;2024-03-02T00:51:03;95888.75;;;7.28;100.00
83308;BME280;73223;48.584;13.460;2024-03-02T00:53:29;95893.53;;;7.39;100.00
83308;BME280;73223;48.584;13.460;2024-03-02T00:55:55;95893.53;;;7.39;100.00
83308;BME280;73223;48.584;13.460;2024-03-02T00:58:20;95889.88;;;7.46;100.00
83308;BME280;73223;48.584;13.460;2024-03-02T01:00:45;95898.41;;;7.48;100.00
83308;BME280;73223;48.584;13.460;2024-03-02T01:03:10;95893.72;;;7.59;100.00
83308;BME280;73223;48.584;13.460;2024-03-02T01:05:36;95893.13;;;7.26;100.00
83308;BME280;73223;48.584;13.460;2024-03-02T01:08:02;95886.34;;;6.97;100.00
83308;BME280;73223;48.584;13.460;2024-03-02T01:10:27;95886.41;;;7.20;100.00
83308;BME280;73223;48.584;13.460;2024-03-02T01:12:52;95894.66;;;7.56;100.00
83308;BME280;73223;48.584;13.460;2024-03-02T01:15:18;95892.03;;;7.33;100.00
83308;BME280;73223;48.584;13.460;2024-03-02T01:17:43;95903.56;;;6.67;100.00
83308;BME280;73223;48.584;13.460;2024-03-02T01:20:09;95890.25;;;7.09;100.00
83308;BME280;73223;48.584;13.460;2024-03-02T01:22:34;95891.97;;;6.54;100.00
83308;BME280;73223;48.584;13.460;2024-03-02T01:25:01;95898.28;;;6.72;100.00
83308;BME280;73223;48.584;13.460;2024-03-02T01:27:26;95891.31;;;7.02;100.00
83308;BME280;73223;48.584;13.460;2024-03-02T01:29:52;95891.28;;;7.03;100.00
83308;BME280;73223;48.584;13.460;2024-03-02T01:32:17;95890.59;;;7.24;100.00
83308;BME280;73223;48.584;13.460;2024-03-02T01:34:43;95891.66;;;7.44;100.00
83308;BME280;73223;48.584;13.460;2024-03-02T01:37:08;95888.31;;;6.89;100.00
83308;BME280;73223;48.584;13.460;2024-03-02T01:39:35;95886.13;;;7.03;100.00
83308;BME280;73223;48.584;13.460;2024-03-02T01:42:00;95886.03;;;6.80;100.00
83308;BME280;73223;48.584;13.460;2024-03-02T01:44:25;95881.31;;;7.19;100.00
83308;BME280;73223;48.584;13.460;2024-03-02T01:46:51;95883.53;;;7.03;100.00
83308;BME280;73223;48.584;13.460;2024-03-02T01:49:16;95879.78;;;7.13;100.00
83308;BME280;73223;48.584;13.460;2024-03-02T01:51:41;95878.44;;;7.28;100.00
83308;BME280;73223;48.584;13.460;2024-03-02T01:54:06;95879.84;;;7.37;100.00
83308;BME280;73223;48.584;13.460;2024-03-02T01:56:32;95883.69;;;7.51;100.00
83308;BME280;73223;48.584;13.460;2024-03-02T01:58:57;95875.03;;;7.27;100.00
83308;BME280;73223;48.584;13.460;2024-03-02T02:01:22;95867.09;;;7.34;100.00
83308;BME280;73223;48.584;13.460;2024-03-02T02:03:47;95869.50;;;7.38;100.00
83308;BME280;73223;48.584;13.460;2024-03-02T02:06:13;95870.19;;;7.43;100.00
83308;BME280;73223;48.584;13.460;2024-03-02T02:08:38;95859.00;;;7.44;100.00
83308;BME280;73223;48.584;13.460;2024-03-02T02:11:03;95863.50;;;7.38;100.00
83308;BME280;73223;48.584;13.460;2024-03-02T02:13:29;95860.88;;;7.14;100.00
83308;BME280;73223;48.584;13.460;2024-03-02T02:15:54;95859.03;;;7.43;100.00
83308;BME280;73223;48.584;13.460;2024-03-02T02:18:19;95852.16;;;7.43;100.00
83308;BME280;73223;48.584;13.460;2024-03-02T02:20:45;95845.69;;;7.31;100.00
83308;BME280;73223;48.584;13.460;2024-03-02T02:23:10;95843.31;;;7.25;100.00
83308;BME280;73223;48.584;13.460;2024-03-02T02:25:35;95845.13;;;7.22;100.00
83308;BME280;73223;48.584;13.460;2024-03-02T02:28:01;95847.56;;;7.26;100.00
83308;BME280;73223;48.584;13.460;2024-03-02T02:30:31;95845.44;;;7.38;100.00
83308;BME280;73223;48.584;13.460;2024-03-02T02:32:57;95836.94;;;7.36;100.00
83308;BME280;73223;48.584;13.460;2024-03-02T02:35:23;95837.06;;;7.32;100.00
83308;BME280;73223;48.584;13.460;2024-03-02T02:37:52;95835.25;;;7.10;100.00
83308;BME280;73223;48.584;13.460;2024-03-02T02:40:18;95832.47;;;7.16;100.00
83308;BME280;73223;48.584;13.460;2024-03-02T02:42:46;95836.44;;;7.00;100.00
83308;BME280;73223;48.584;13.460;2024-03-02T02:45:12;95834.13;;;6.92;100.00
83308;BME280;73223;48.584;13.460;2024-03-02T02:47:40;95838.63;;;6.85;100.00
83308;BME280;73223;48.584;13.460;2024-03-02T02:50:07;95835.38;;;6.80;100.00
83308;BME280;73223;48.584;13.460;2024-03-02T02:52:33;95847.28;;;6.83;100.00
83308;BME280;73223;48.584;13.460;2024-03-02T02:55:01;95839.69;;;6.80;100.00
83308;BME280;73223;48.584;13.460;2024-03-02T02:57:26;95836.59;;;6.95;100.00
83308;BME280;73223;48.584;13.460;2024-03-02T02:59:51;95832.13;;;6.74;100.00
83308;BME280;73223;48.584;13.460;2024-03-02T03:02:16;95839.50;;;6.58;100.00
83308;BME280;73223;48.584;13.460;2024-03-02T03:04:42;95841.44;;;6.78;100.00
83308;BME280;73223;48.584;13.460;2024-03-02T03:07:07;95838.41;;;6.65;100.00
83308;BME280;73223;48.584;13.460;2024-03-02T03:09:32;95839.81;;;6.47;100.00
83308;BME280;73223;48.584;13.460;2024-03-02T03:11:57;95841.16;;;6.31;100.00
83308;BME280;73223;48.584;13.460;2024-03-02T03:14:23;95835.66;;;6.71;100.00
83308;BME280;73223;48.584;13.460;2024-03-02T03:16:48;95845.25;;;6.38;100.00
83308;BME280;73223;48.584;13.460;2024-03-02T03:19:13;95839.06;;;6.72;100.00
83308;BME280;73223;48.584;13.460;2024-03-02T03:21:39;95838.97;;;6.47;100.00
83308;BME280;73223;48.584;13.460;2024-03-02T03:24:04;95839.72;;;6.50;100.00
83308;BME280;73223;48.584;13.460;2024-03-02T03:26:29;95836.66;;;6.10;100.00
83308;BME280;73223;48.584;13.460;2024-03-02T03:28:55;95837.09;;;5.95;100.00
83308;BME280;73223;48.584;13.460;2024-03-02T03:31:20;95834.28;;;5.73;100.00
83308;BME280;73223;48.584;13.460;2024-03-02T03:33:45;95839.78;;;6.21;100.00
83308;BME280;73223;48.584;13.460;2024-03-02T03:36:10;95826.09;;;6.47;100.00
83308;BME280;73223;48.584;13.460;2024-03-02T03:38:36;95833.59;;;6.54;100.00
83308;BME280;73223;48.584;13.460;2024-03-02T03:41:01;95831.47;;;6.67;100.00
83308;BME280;73223;48.584;13.460;2024-03-02T03:43:26;95826.31;;;6.67;100.00
83308;BME280;73223;48.584;13.460;2024-03-02T03:45:51;95829.25;;;6.56;100.00
83308;BME280;73223;48.584;13.460;2024-03-02T03:48:17;95826.72;;;6.55;100.00
83308;BME280;73223;48.584;13.460;2024-03-02T03:50:42;95831.88;;;6.55;100.00
83308;BME280;73223;48.584;13.460;2024-03-02T03:53:08;95831.84;;;6.27;100.00
83308;BME280;73223;48.584;13.460;2024-03-02T03:55:33;95827.78;;;6.20;100.00
83308;BME280;73223;48.584;13.460;2024-03-02T03:57:58;95830.91;;;6.30;100.00
83308;BME280;73223;48.584;13.460;2024-03-02T04:00:24;95832.00;;;6.22;100.00
83308;BME280;73223;48.584;13.460;2024-03-02T04:02:49;95831.91;;;6.53;100.00
83308;BME280;73223;48.584;13.460;2024-03-02T04:05:14;95828.00;;;6.42;100.00
83308;BME280;73223;48.584;13.460;2024-03-02T04:07:39;95829.69;;;6.13;100.00
83308;BME280;73223;48.584;13.460;2024-03-02T04:10:09;95840.38;;;6.29;100.00
83308;BME280;73223;48.584;13.460;2024-03-02T04:12:36;95831.16;;;6.50;100.00
83308;BME280;73223;48.584;13.460;2024-03-02T04:15:03;95825.16;;;6.49;100.00
83308;BME280;73223;48.584;13.460;2024-03-02T04:17:29;95831.81;;;6.56;100.00
83308;BME280;73223;48.584;13.460;2024-03-02T04:19:54;95827.28;;;6.37;100.00
83308;BME280;73223;48.584;13.460;2024-03-02T04:22:19;95839.53;;;6.28;100.00
83308;BME280;73223;48.584;13.460;2024-03-02T04:24:45;95840.19;;;6.35;100.00
83308;BME280;73223;48.584;13.460;2024-03-02T04:27:10;95842.94;;;6.01;100.00
83308;BME280;73223;48.584;13.460;2024-03-02T04:29:35;95842.88;;;6.03;100.00
83308;BME280;73223;48.584;13.460;2024-03-02T04:32:00;95851.13;;;5.83;100.00
83308;BME280;73223;48.584;13.460;2024-03-02T04:34:26;95853.63;;;5.86;100.00
83308;BME280;73223;48.584;13.460;2024-03-02T04:36:51;95841.72;;;6.13;100.00
83308;BME280;73223;48.584;13.460;2024-03-02T04:39:16;95845.13;;;6.13;100.00
83308;BME280;73223;48.584;13.460;2024-03-02T04:41:41;95851.84;;;6.19;100.00
83308;BME280;73223;48.584;13.460;2024-03-02T04:44:07;95863.22;;;5.79;100.00
83308;BME280;73223;48.584;13.460;2024-03-02T04:46:33;95856.34;;;6.11;100.00
83308;BME280;73223;48.584;13.460;2024-03-02T04:48:58;95856.94;;;6.20;100.00
83308;BME280;73223;48.584;13.460;2024-03-02T04:51:23;95865.72;;;5.82;100.00
83308;BME280;73223;48.584;13.460;2024-03-02T04:53:48;95864.44;;;5.99;100.00
83308;BME280;73223;48.584;13.460;2024-03-02T04:56:14;95860.94;;;6.01;100.00
83308;BME280;73223;48.584;13.460;2024-03-02T04:59:05;95862.94;;;6.21;100.00
83308;BME280;73223;48.584;13.460;2024-03-02T05:01:30;95865.31;;;6.27;100.00
83308;BME280;73223;48.584;13.460;2024-03-02T05:03:55;95867.91;;;6.55;100.00
83308;BME280;73223;48.584;13.460;2024-03-02T05:06:21;95867.16;;;6.51;100.00
83308;BME280;73223;48.584;13.460;2024-03-02T05:08:46;95878.03;;;6.61;100.00
83308;BME280;73223;48.584;13.460;2024-03-02T05:11:13;95877.19;;;6.60;100.00
83308;BME280;73223;48.584;13.460;2024-03-02T05:13:56;95877.22;;;6.59;100.00
83308;BME280;73223;48.584;13.460;2024-03-02T05:16:22;95877.59;;;6.47;100.00
83308;BME280;73223;48.584;13.460;2024-03-02T05:18:47;95870.91;;;6.69;100.00
83308;BME280;73223;48.584;13.460;2024-03-02T05:21:12;95868.50;;;6.63;100.00
83308;BME280;73223;48.584;13.460;2024-03-02T05:23:38;95871.06;;;6.63;100.00
83308;BME280;73223;48.584;13.460;2024-03-02T05:26:03;95873.44;;;6.71;100.00
83308;BME280;73223;48.584;13.460;2024-03-02T05:28:29;95877.91;;;6.64;100.00
83308;BME280;73223;48.584;13.460;2024-03-02T05:30:54;95883.06;;;6.64;100.00
83308;BME280;73223;48.584;13.460;2024-03-02T05:33:19;95885.09;;;6.54;100.00
83308;BME280;73223;48.584;13.460;2024-03-02T05:35:47;95884.88;;;6.62;100.00
83308;BME280;73223;48.584;13.460;2024-03-02T05:38:14;95877.91;;;6.64;100.00
83308;BME280;73223;48.584;13.460;2024-03-02T05:40:40;95878.56;;;6.71;100.00
83308;BME280;73223;48.584;13.460;2024-03-02T05:43:05;95877.22;;;6.59;100.00
83308;BME280;73223;48.584;13.460;2024-03-02T05:45:30;95876.53;;;6.54;100.00
83308;BME280;73223;48.584;13.460;2024-03-02T05:47:55;95880.47;;;6.64;100.00
83308;BME280;73223;48.584;13.460;2024-03-02T05:50:21;95882.47;;;6.56;100.00
83308;BME280;73223;48.584;13.460;2024-03-02T05:52:46;95889.16;;;6.61;100.00
83308;BME280;73223;48.584;13.460;2024-03-02T05:55:12;95891.91;;;6.55;100.00
83308;BME280;73223;48.584;13.460;2024-03-02T05:57:37;95886.66;;;6.60;100.00
83308;BME280;73223;48.584;13.460;2024-03-02T06:00:06;95893.53;;;6.59;100.00
83308;BME280;73223;48.584;13.460;2024-03-02T06:02:33;95891.78;;;6.60;100.00
83308;BME280;73223;48.584;13.460;2024-03-02T06:04:58;95895.22;;;6.60;100.00
83308;BME280;73223;48.584;13.460;2024-03-02T06:07:23;95896.25;;;6.81;100.00
83308;BME280;73223;48.584;13.460;2024-03-02T06:09:49;95906.06;;;6.70;100.00
83308;BME280;73223;48.584;13.460;2024-03-02T06:12:16;95905.03;;;6.76;100.00
83308;BME280;73223;48.584;13.460;2024-03-02T06:14:41;95911.13;;;6.73;100.00
83308;BME280;73223;48.584;13.460;2024-03-02T06:17:08;95905.97;;;6.73;100.00
83308;BME280;73223;48.584;13.460;2024-03-02T06:19:33;95907.78;;;6.70;100.00
83308;BME280;73223;48.584;13.460;2024-03-02T06:21:58;95909.38;;;6.74;100.00
83308;BME280;73223;48.584;13.460;2024-03-02T06:24:24;95916.31;;;6.72;100.00
83308;BME280;73223;48.584;13.460;2024-03-02T06:26:51;95914.16;;;6.86;100.00
83308;BME280;73223;48.584;13.460;2024-03-02T06:29:17;95913.22;;;6.88;100.00
83308;BME280;73223;48.584;13.460;2024-03-02T06:31:42;95914.84;;;6.91;100.00
83308;BME280;73223;48.584;13.460;2024-03-02T06:34:07;95919.22;;;6.89;100.00
83308;BME280;73223;48.584;13.460;2024-03-02T06:36:33;95922.31;;;6.72;100.00
83308;BME280;73223;48.584;13.460;2024-03-02T06:38:59;95917.34;;;6.94;100.00
83308;BME280;73223;48.584;13.460;2024-03-02T06:41:24;95922.00;;;7.09;100.00
83308;BME280;73223;48.584;13.460;2024-03-02T06:43:49;95922.16;;;7.05;100.00
83308;BME280;73223;48.584;13.460;2024-03-02T06:46:14;95915.41;;;7.01;100.00
83308;BME280;73223;48.584;13.460;2024-03-02T06:48:40;95911.59;;;7.12;100.00
83308;BME280;73223;48.584;13.460;2024-03-02T06:51:05;95924.00;;;7.27;100.00
83308;BME280;73223;48.584;13.460;2024-03-02T06:53:30;95924.50;;;7.12;100.00
83308;BME280;73223;48.584;13.460;2024-03-02T06:55:58;95935.25;;;7.25;100.00
83308;BME280;73223;48.584;13.460;2024-03-02T06:58:24;95935.25;;;7.25;100.00
83308;BME280;73223;48.584;13.460;2024-03-02T07:00:49;95934.41;;;7.24;100.00
83308;BME280;73223;48.584;13.460;2024-03-02T07:03:14;95941.38;;;7.21;100.00
83308;BME280;73223;48.584;13.460;2024-03-02T07:05:39;95955.09;;;6.95;100.00
83308;BME280;73223;48.584;13.460;2024-03-02T07:08:05;95951.94;;;7.13;100.00
83308;BME280;73223;48.584;13.460;2024-03-02T07:10:31;95956.63;;;6.73;100.00
83308;BME280;73223;48.584;13.460;2024-03-02T07:12:56;95961.94;;;6.96;100.00
83308;BME280;73223;48.584;13.460;2024-03-02T07:15:21;95972.56;;;7.13;100.00
83308;BME280;73223;48.584;13.460;2024-03-02T07:17:52;95961.63;;;7.33;100.00
83308;BME280;73223;48.584;13.460;2024-03-02T07:20:18;95964.19;;;7.59;100.00
83308;BME280;73223;48.584;13.460;2024-03-02T07:22:43;95963.19;;;7.63;100.00
83308;BME280;73223;48.584;13.460;2024-03-02T07:25:08;95971.88;;;7.61;100.00
83308;BME280;73223;48.584;13.460;2024-03-02T07:27:33;95974.25;;;7.67;100.00
83308;BME280;73223;48.584;13.460;2024-03-02T07:30:03;95975.75;;;7.73;100.00
83308;BME280;73223;48.584;13.460;2024-03-02T07:32:29;95978.09;;;7.80;100.00
83308;BME280;73223;48.584;13.460;2024-03-02T07:34:54;95989.25;;;7.54;100.00
83308;BME280;73223;48.584;13.460;2024-03-02T07:37:20;95992.59;;;7.58;100.00
83308;BME280;73223;48.584;13.460;2024-03-02T07:39:46;95995.22;;;7.56;100.00
83308;BME280;73223;48.584;13.460;2024-03-02T07:42:11;96001.00;;;7.37;100.00
83308;BME280;73223;48.584;13.460;2024-03-02T07:44:36;96009.31;;;7.46;100.00
83308;BME280;73223;48.584;13.460;2024-03-02T07:47:02;96011.41;;;7.88;100.00
83308;BME280;73223;48.584;13.460;2024-03-02T07:49:28;96013.28;;;8.08;100.00
83308;BME280;73223;48.584;13.460;2024-03-02T07:51:53;96014.75;;;8.15;100.00
83308;BME280;73223;48.584;13.460;2024-03-02T07:54:18;96017.69;;;8.29;100.00
83308;BME280;73223;48.584;13.460;2024-03-02T07:56:44;96017.28;;;8.16;100.00
83308;BME280;73223;48.584;13.460;2024-03-02T07:59:10;96017.13;;;8.21;100.00
83308;BME280;73223;48.584;13.460;2024-03-02T08:01:35;96012.22;;;8.40;100.00
83308;BME280;73223;48.584;13.460;2024-03-02T08:04:01;96014.38;;;8.25;100.00
83308;BME280;73223;48.584;13.460;2024-03-02T08:06:29;96016.94;;;8.52;100.00
83308;BME280;73223;48.584;13.460;2024-03-02T08:08:55;96014.84;;;8.61;100.00
83308;BME280;73223;48.584;13.460;2024-03-02T08:11:21;96015.59;;;8.42;100.00
83308;BME280;73223;48.584;13.460;2024-03-02T08:13:47;96013.94;;;7.63;100.00
83308;BME280;73223;48.584;13.460;2024-03-02T08:16:14;96020.56;;;8.46;100.00
83308;BME280;73223;48.584;13.460;2024-03-02T08:18:39;96017.56;;;8.58;100.00
83308;BME280;73223;48.584;13.460;2024-03-02T08:21:04;96014.53;;;8.94;100.00
83308;BME280;73223;48.584;13.460;2024-03-02T08:23:30;96011.19;;;8.90;100.00
83308;BME280;73223;48.584;13.460;2024-03-02T08:25:55;96014.38;;;8.97;100.00
83308;BME280;73223;48.584;13.460;2024-03-02T08:28:21;96019.75;;;8.92;100.00
83308;BME280;73223;48.584;13.460;2024-03-02T08:30:46;96028.19;;;9.19;100.00
83308;BME280;73223;48.584;13.460;2024-03-02T08:33:11;96027.19;;;9.00;100.00
83308;BME280;73223;48.584;13.460;2024-03-02T08:35:36;96024.16;;;9.12;100.00
83308;BME280;73223;48.584;13.460;2024-03-02T08:38:02;96017.41;;;9.52;100.00
83308;BME280;73223;48.584;13.460;2024-03-02T08:40:28;96019.63;;;9.83;100.00
83308;BME280;73223;48.584;13.460;2024-03-02T08:42:54;96020.63;;;10.00;100.00
83308;BME280;73223;48.584;13.460;2024-03-02T08:45:19;96013.34;;;10.08;100.00
83308;BME280;73223;48.584;13.460;2024-03-02T08:47:45;96006.19;;;9.95;100.00
83308;BME280;73223;48.584;13.460;2024-03-02T08:50:11;96013.78;;;9.78;100.00
83308;BME280;73223;48.584;13.460;2024-03-02T08:52:36;96012.34;;;10.33;100.00
83308;BME280;73223;48.584;13.460;2024-03-02T08:55:02;96004.34;;;10.39;100.00
83308;BME280;73223;48.584;13.460;2024-03-02T08:57:27;96009.16;;;10.47;100.00
83308;BME280;73223;48.584;13.460;2024-03-02T08:59:52;96000.59;;;10.65;100.00
83308;BME280;73223;48.584;13.460;2024-03-02T09:02:18;95995.44;;;10.44;100.00
83308;BME280;73223;48.584;13.460;2024-03-02T09:04:43;95998.56;;;10.32;100.00
83308;BME280;73223;48.584;13.460;2024-03-02T09:07:09;95997.44;;;9.97;100.00
83308;BME280;73223;48.584;13.460;2024-03-02T09:09:34;95996.97;;;9.88;100.00
83308;BME280;73223;48.584;13.460;2024-03-02T09:12:00;95998.78;;;10.06;100.00
83308;BME280;73223;48.584;13.460;2024-03-02T09:14:25;95999.44;;;10.11;100.00
83308;BME280;73223;48.584;13.460;2024-03-02T09:16:50;96004.38;;;10.17;100.00
83308;BME280;73223;48.584;13.460;2024-03-02T09:19:16;96005.63;;;9.66;100.00
83308;BME280;73223;48.584;13.460;2024-03-02T09:21:42;96007.34;;;10.49;100.00
83308;BME280;73223;48.584;13.460;2024-03-02T09:24:07;96006.00;;;10.98;100.00
83308;BME280;73223;48.584;13.460;2024-03-02T09:26:32;95995.50;;;11.56;100.00
83308;BME280;73223;48.584;13.460;2024-03-02T09:28:58;95998.41;;;11.12;100.00
83308;BME280;73223;48.584;13.460;2024-03-02T09:31:23;96001.66;;;10.00;100.00
83308;BME280;73223;48.584;13.460;2024-03-02T09:33:48;95994.47;;;10.47;100.00
83308;BME280;73223;48.584;13.460;2024-03-02T09:36:20;95993.72;;;10.83;100.00
83308;BME280;73223;48.584;13.460;2024-03-02T09:38:46;95984.47;;;10.19;100.00
83308;BME280;73223;48.584;13.460;2024-03-02T09:41:12;95981.63;;;11.38;100.00
83308;BME280;73223;48.584;13.460;2024-03-02T09:43:37;95978.78;;;11.44;100.00
83308;BME280;73223;48.584;13.460;2024-03-02T09:46:03;95983.19;;;11.78;100.00
83308;BME280;73223;48.584;13.460;2024-03-02T09:48:28;95978.91;;;11.94;100.00
83308;BME280;73223;48.584;13.460;2024-03-02T09:50:54;95977.69;;;11.48;100.00
83308;BME280;73223;48.584;13.460;2024-03-02T09:53:19;95971.28;;;11.55;100.00
83308;BME280;73223;48.584;13.460;2024-03-02T09:55:46;95970.13;;;12.14;100.00
83308;BME280;73223;48.584;13.460;2024-03-02T09:58:12;95969.69;;;11.70;100.00
83308;BME280;73223;48.584;13.460;2024-03-02T10:00:37;95969.00;;;12.52;100.00
83308;BME280;73223;48.584;13.460;2024-03-02T10:03:03;95956.72;;;12.88;100.00
83308;BME280;73223;48.584;13.460;2024-03-02T10:05:29;95965.44;;;12.21;100.00
83308;BME280;73223;48.584;13.460;2024-03-02T10:08:02;95965.94;;;12.44;100.00
83308;BME280;73223;48.584;13.460;2024-03-02T10:10:35;95960.03;;;13.23;100.00
83308;BME280;73223;48.584;13.460;2024-03-02T10:13:05;95965.91;;;13.72;100.00
83308;BME280;73223;48.584;13.460;2024-03-02T10:15:30;95951.97;;;13.73;100.00
83308;BME280;73223;48.584;13.460;2024-03-02T10:17:55;95956.97;;;13.46;100.00
83308;BME280;73223;48.584;13.460;2024-03-02T10:20:22;95954.53;;;14.33;100.00
83308;BME280;73223;48.584;13.460;2024-03-02T10:22:48;95952.69;;;14.77;100.00
83308;BME280;73223;48.584;13.460;2024-03-02T10:25:33;95953.56;;;14.64;100.00
83308;BME280;73223;48.584;13.460;2024-03-02T10:27:59;95948.22;;;13.93;100.00
83308;BME280;73223;48.584;13.460;2024-03-02T10:30:27;95945.13;;;14.30;100.00
83308;BME280;73223;48.584;13.460;2024-03-02T10:32:55;95941.84;;;14.12;100.00
83308;BME280;73223;48.584;13.460;2024-03-02T10:35:22;95941.50;;;15.04;100.00
83308;BME280;73223;48.584;13.460;2024-03-02T10:37:49;95924.78;;;15.06;98.29
83308;BME280;73223;48.584;13.460;2024-03-02T10:40:15;95928.34;;;14.34;100.00
83308;BME280;73223;48.584;13.460;2024-03-02T10:42:42;95923.69;;;13.97;100.00
83308;BME280;73223;48.584;13.460;2024-03-02T10:45:09;95925.66;;;14.36;100.00
83308;BME280;73223;48.584;13.460;2024-03-02T10:47:36;95913.38;;;14.94;91.82
83308;BME280;73223;48.584;13.460;2024-03-02T10:50:04;95909.81;;;14.96;83.32
83308;BME280;73223;48.584;13.460;2024-03-02T10:52:36;95909.28;;;15.44;89.58
83308;BME280;73223;48.584;13.460;2024-03-02T10:55:02;95912.38;;;15.90;90.50
83308;BME280;73223;48.584;13.460;2024-03-02T10:57:34;95905.94;;;16.09;89.19
83308;BME280;73223;48.584;13.460;2024-03-02T11:00:05;95910.72;;;16.02;86.76
83308;BME280;73223;48.584;13.460;2024-03-02T11:02:32;95905.72;;;16.12;82.71
83308;BME280;73223;48.584;13.460;2024-03-02T11:05:00;95902.81;;;15.64;83.85
83308;BME280;73223;48.584;13.460;2024-03-02T11:07:27;95896.94;;;16.63;80.39
83308;BME280;73223;48.584;13.460;2024-03-02T11:10:01;95895.25;;;16.75;70.91
83308;BME280;73223;48.584;13.460;2024-03-02T11:12:39;95886.31;;;16.90;72.84
83308;BME280;73223;48.584;13.460;2024-03-02T11:15:17;95883.38;;;15.41;98.62
83308;BME280;73223;48.584;13.460;2024-03-02T11:17:43;95882.25;;;15.45;88.25
83308;BME280;73223;48.584;13.460;2024-03-02T11:20:09;95884.19;;;16.08;90.78
83308;BME280;73223;48.584;13.460;2024-03-02T11:22:36;95884.78;;;16.62;73.78
83308;BME280;73223;48.584;13.460;2024-03-02T11:25:01;95874.72;;;18.34;69.91
83308;BME280;73223;48.584;13.460;2024-03-02T11:33:04;95853.88;;;18.55;62.34
83308;BME280;73223;48.584;13.460;2024-03-02T11:35:51;95837.59;;;19.49;59.95
83308;BME280;73223;48.584;13.460;2024-03-02T11:38:18;95839.75;;;19.12;58.41
83308;BME280;73223;48.584;13.460;2024-03-02T11:40:43;95835.28;;;18.81;59.08
83308;BME280;73223;48.584;13.460;2024-03-02T11:43:08;95826.91;;;18.53;57.75
83308;BME280;73223;48.584;13.460;2024-03-02T11:45:35;95821.97;;;19.36;56.87
83308;BME280;73223;48.584;13.460;2024-03-02T11:48:05;95819.50;;;19.88;56.45
83308;BME280;73223;48.584;13.460;2024-03-02T11:50:34;95810.97;;;19.95;52.26
83308;BME280;73223;48.584;13.460;2024-03-02T11:53:00;95816.31;;;20.35;53.99
83308;BME280;73223;48.584;13.460;2024-03-02T11:55:26;95810.47;;;20.32;54.13
83308;BME280;73223;48.584;13.460;2024-03-02T11:57:55;95807.81;;;19.28;52.25
83308;BME280;73223;48.584;13.460;2024-03-02T12:00:20;95806.44;;;20.07;53.05
83308;BME280;73223;48.584;13.460;2024-03-02T12:02:47;95805.72;;;19.42;55.89
83308;BME280;73223;48.584;13.460;2024-03-02T12:05:24;95800.22;;;20.59;53.48
83308;BME280;73223;48.584;13.460;2024-03-02T12:07:55;95802.47;;;20.13;53.26
83308;BME280;73223;48.584;13.460;2024-03-02T12:10:21;95801.13;;;18.92;55.34
83308;BME280;73223;48.584;13.460;2024-03-02T12:12:46;95795.19;;;19.74;53.89
83308;BME280;73223;48.584;13.460;2024-03-02T12:15:13;95791.88;;;20.94;51.00
83308;BME280;73223;48.584;13.460;2024-03-02T12:17:38;95783.47;;;21.39;49.65
83308;BME280;73223;48.584;13.460;2024-03-02T12:20:05;95787.47;;;20.24;50.48
83308;BME280;73223;48.584;13.460;2024-03-02T12:22:30;95778.69;;;19.20;51.47
83308;BME280;73223;48.584;13.460;2024-03-02T12:24:56;95789.28;;;20.33;52.02
83308;BME280;73223;48.584;13.460;2024-03-02T12:27:21;95780.31;;;19.85;52.44
83308;BME280;73223;48.584;13.460;2024-03-02T12:29:47;95779.72;;;19.07;55.59
83308;BME280;73223;48.584;13.460;2024-03-02T12:32:13;95775.63;;;20.89;50.28
83308;BME280;73223;48.584;13.460;2024-03-02T12:34:39;95768.19;;;19.93;51.99
83308;BME280;73223;48.584;13.460;2024-03-02T12:37:04;95774.44;;;20.53;50.92
83308;BME280;73223;48.584;13.460;2024-03-02T12:39:30;95760.50;;;21.88;49.22
83308;BME280;73223;48.584;13.460;2024-03-02T12:41:58;95762.75;;;22.29;46.87
83308;BME280;73223;48.584;13.460;2024-03-02T12:44:23;95752.91;;;22.86;46.11
83308;BME280;73223;48.584;13.460;2024-03-02T12:46:48;95761.13;;;20.55;49.12
83308;BME280;73223;48.584;13.460;2024-03-02T12:49:15;95747.81;;;22.47;47.21
83308;BME280;73223;48.584;13.460;2024-03-02T12:51:43;95748.50;;;22.77;45.91